createdAt,value
2018-05-05T00:01:36.507Z,66.60
2018-05-05T00:04:02.389Z,66.70
2018-05-05T00:06:28.278Z,67.60
2018-05-05T00:08:54.223Z,68.20
2018-05-05T00:11:20.106Z,68.70
2018-05-05T00:13:46.729Z,68.90
2018-05-05T00:16:13.383Z,69.10
2018-05-05T00:18:40.064Z,68.30
2018-05-05T00:21:05.976Z,68.30
2018-05-05T00:23:31.875Z,69.20
2018-05-05T00:25:57.764Z,69.00
2018-05-05T00:28:23.684Z,70.20
2018-05-05T00:30:49.562Z,69.80
2018-05-05T00:33:15.467Z,70.00
2018-05-05T00:35:41.471Z,70.10
2018-05-05T00:38:08.133Z,69.90
2018-05-05T00:40:34.001Z,69.90
2018-05-05T00:42:59.920Z,71.10
2018-05-05T00:45:25.816Z,71.20
2018-05-05T00:47:51.691Z,70.40
2018-05-05T00:50:17.638Z,70.10
2018-05-05T00:52:43.724Z,71.00
2018-05-05T00:55:10.359Z,71.90
2018-05-05T00:57:37.013Z,72.30
2018-05-05T01:00:02.922Z,72.30
2018-05-05T01:02:29.564Z,72.40
2018-05-05T01:04:56.212Z,73.40
2018-05-05T01:07:22.149Z,73.50
2018-05-05T01:09:48.079Z,73.20
2018-05-05T01:12:13.956Z,73.00
2018-05-05T01:14:40.598Z,73.50
2018-05-05T01:17:07.258Z,74.70
2018-05-05T01:19:33.187Z,74.60
2018-05-05T01:21:59.094Z,75.50
2018-05-05T01:24:25.014Z,74.90
2018-05-05T01:26:50.906Z,77.10
2018-05-05T01:29:17.549Z,77.30
2018-05-05T01:31:44.230Z,77.70
2018-05-05T01:34:10.183Z,77.80
2018-05-05T01:36:36.077Z,78.20
2018-05-05T01:39:01.991Z,78.20
2018-05-05T01:41:27.882Z,78.60
2018-05-05T01:43:54.532Z,79.50
2018-05-05T01:46:20.469Z,79.40
2018-05-05T01:48:46.387Z,80.60
2018-05-05T01:51:12.334Z,80.50
2018-05-05T01:53:38.228Z,80.70
2018-05-05T01:56:04.125Z,80.20
2018-05-05T01:58:30.788Z,80.20
2018-05-05T02:00:56.676Z,80.30
2018-05-05T02:03:23.342Z,82.10
2018-05-05T02:05:49.242Z,82.10
2018-05-05T02:08:16.534Z,80.50
2018-05-05T02:10:42.453Z,80.40
2018-05-05T02:13:08.370Z,81.10
2018-05-05T02:15:34.264Z,80.50
2018-05-05T02:18:00.145Z,80.90
2018-05-05T02:20:26.052Z,81.10
2018-05-05T02:22:51.953Z,81.60
2018-05-05T02:25:17.890Z,81.20
2018-05-05T02:27:43.799Z,81.20
2018-05-05T02:30:09.687Z,83.00
2018-05-05T02:32:35.576Z,83.00
2018-05-05T02:35:01.506Z,83.00
2018-05-05T02:37:28.141Z,83.80
2018-05-05T02:39:54.787Z,85.50
2018-05-05T02:42:21.417Z,83.90
2018-05-05T02:44:48.070Z,82.90
2018-05-05T02:47:13.980Z,82.80
2018-05-05T02:49:40.609Z,84.20
2018-05-05T02:52:06.518Z,84.20
2018-05-05T02:54:32.954Z,85.70
2018-05-05T02:56:58.853Z,84.20
2018-05-05T02:59:24.822Z,83.60
2018-05-05T03:01:51.475Z,86.10
2018-05-05T03:04:17.385Z,86.10
2018-05-05T03:06:44.085Z,86.30
2018-05-05T03:09:09.979Z,87.10
2018-05-05T03:11:35.973Z,84.50
2018-05-05T03:14:01.849Z,84.40
2018-05-05T03:16:28.339Z,83.10
2018-05-05T03:18:54.265Z,84.50
2018-05-05T03:21:20.171Z,85.00
2018-05-05T03:23:46.086Z,84.90
2018-05-05T03:26:12.733Z,86.00
2018-05-05T03:28:38.665Z,86.20
2018-05-05T03:31:04.572Z,85.80
2018-05-05T03:33:30.471Z,83.90
2018-05-05T03:35:57.130Z,84.70
2018-05-05T03:38:23.034Z,84.70
2018-05-05T03:40:49.668Z,85.00
2018-05-05T03:43:16.344Z,85.30
2018-05-05T03:45:42.263Z,85.30
2018-05-05T03:48:08.174Z,86.20
2018-05-05T03:50:34.059Z,86.60
2018-05-05T03:52:59.962Z,86.50
2018-05-05T03:55:25.873Z,87.10
2018-05-05T03:57:51.764Z,85.70
2018-05-05T04:00:30.149Z,85.80
2018-05-05T04:03:09.331Z,86.40
2018-05-05T04:05:41.348Z,86.40
2018-05-05T04:08:07.995Z,86.40
2018-05-05T04:10:33.904Z,86.40
2018-05-05T04:13:00.554Z,87.90
2018-05-05T04:15:26.464Z,87.90
2018-05-05T04:17:53.111Z,84.80
2018-05-05T04:20:19.008Z,84.80
2018-05-05T04:22:45.652Z,86.00
2018-05-05T04:25:12.280Z,84.20
2018-05-05T04:27:38.186Z,84.20
2018-05-05T04:30:04.099Z,83.00
2018-05-05T04:32:29.987Z,83.90
2018-05-05T04:34:55.896Z,84.40
2018-05-05T04:37:21.810Z,82.60
2018-05-05T04:39:47.700Z,82.00
2018-05-05T04:42:13.620Z,81.90
2018-05-05T04:44:39.544Z,79.80
2018-05-05T04:47:06.193Z,79.30
2018-05-05T04:49:32.851Z,79.10
2018-05-05T04:51:58.748Z,79.10
2018-05-05T04:54:32.555Z,76.50
2018-05-05T04:56:59.210Z,75.80
2018-05-05T04:59:25.099Z,75.80
2018-05-05T05:01:51.001Z,73.10
2018-05-05T05:04:16.903Z,69.70
2018-05-05T05:06:42.828Z,63.10
2018-05-05T05:09:08.721Z,57.70
2018-05-05T05:11:34.618Z,54.70
2018-05-05T05:14:01.257Z,52.20
2018-05-05T05:16:27.893Z,53.10
2018-05-05T05:19:01.751Z,54.50
2018-05-05T05:21:27.665Z,54.50
2018-05-05T05:23:53.563Z,55.80
2018-05-05T05:26:19.485Z,55.60
2018-05-05T05:28:45.451Z,56.00
2018-05-05T05:31:12.049Z,55.40
2018-05-05T05:33:37.968Z,55.30
2018-05-05T05:36:03.880Z,54.60
2018-05-05T05:38:29.808Z,55.90
2018-05-05T05:40:55.738Z,55.90
2018-05-05T05:43:21.669Z,56.30
2018-05-05T05:45:47.574Z,55.90
2018-05-05T05:48:13.494Z,56.20
2018-05-05T05:50:39.416Z,55.80
2018-05-05T05:53:05.314Z,55.40
2018-05-05T05:55:31.965Z,55.00
2018-05-05T05:57:57.864Z,55.00
2018-05-05T06:00:24.509Z,54.00
2018-05-05T06:02:51.172Z,54.50
2018-05-05T06:05:17.082Z,54.50
2018-05-05T06:07:43.704Z,53.40
2018-05-05T06:10:10.338Z,52.40
2018-05-05T06:12:36.964Z,51.50
2018-05-05T06:15:02.885Z,51.60
2018-05-05T06:17:28.785Z,49.20
2018-05-05T06:19:54.735Z,48.10
2018-05-05T06:22:21.372Z,47.60
2018-05-05T06:24:48.029Z,47.00
2018-05-05T06:27:14.016Z,47.00
2018-05-05T06:29:39.841Z,46.40
2018-05-05T06:32:05.735Z,45.00
2018-05-05T06:34:31.641Z,42.80
2018-05-05T06:36:57.546Z,42.70
2018-05-05T06:39:23.462Z,41.70
2018-05-05T06:41:49.356Z,42.30
2018-05-05T06:44:16.014Z,40.10
2018-05-05T06:46:41.904Z,39.90
2018-05-05T06:49:07.801Z,40.60
2018-05-05T06:51:33.697Z,38.30
2018-05-05T06:53:59.599Z,37.70
2018-05-05T06:56:25.531Z,36.40
2018-05-05T06:58:51.446Z,35.30
2018-05-05T07:01:17.343Z,33.90
2018-05-05T07:03:43.995Z,32.90
2018-05-05T07:06:09.888Z,32.90
2018-05-05T07:08:35.788Z,31.90
2018-05-05T07:11:01.666Z,33.40
2018-05-05T07:13:27.548Z,32.10
2018-05-05T07:15:53.474Z,31.60
2018-05-05T07:18:20.127Z,32.60
2018-05-05T07:20:46.049Z,31.70
2018-05-05T07:23:13.424Z,29.80
2018-05-05T07:25:39.399Z,29.80
2018-05-05T07:28:05.974Z,31.90
2018-05-05T07:30:31.867Z,31.80
2018-05-05T07:32:58.523Z,31.40
2018-05-05T07:35:25.163Z,29.80
2018-05-05T07:37:51.110Z,29.80
2018-05-05T07:40:17.069Z,30.20
2018-05-05T07:42:43.101Z,29.10
2018-05-05T07:45:09.008Z,29.70
2018-05-05T07:47:34.918Z,29.30
2018-05-05T07:50:00.801Z,29.00
2018-05-05T07:52:26.705Z,28.80
2018-05-05T07:54:53.338Z,26.30
2018-05-05T07:57:19.949Z,26.50
2018-05-05T07:59:45.857Z,26.50
2018-05-05T08:02:11.783Z,25.40
2018-05-05T08:04:37.688Z,24.60
2018-05-05T08:07:03.574Z,23.80
2018-05-05T08:09:29.492Z,25.00
2018-05-05T08:11:55.399Z,23.60
2018-05-05T08:14:22.027Z,24.10
2018-05-05T08:16:48.688Z,23.00
2018-05-05T08:19:15.304Z,24.10
2018-05-05T08:21:41.982Z,24.50
2018-05-05T08:24:07.893Z,24.50
2018-05-05T08:26:33.785Z,24.90
2018-05-05T08:29:00.449Z,24.00
2018-05-05T08:31:26.340Z,24.00
2018-05-05T08:33:52.973Z,23.50
2018-05-05T08:36:18.879Z,23.40
2018-05-05T08:38:44.776Z,22.80
2018-05-05T08:41:10.683Z,21.80
2018-05-05T08:43:36.570Z,22.10
2018-05-05T08:46:04.016Z,20.00
2018-05-05T08:48:29.936Z,20.00
2018-05-05T08:50:56.575Z,20.10
2018-05-05T08:53:23.245Z,20.00
2018-05-05T08:55:49.165Z,20.00
2018-05-05T08:58:15.058Z,20.70
2018-05-05T09:00:42.271Z,19.40
2018-05-05T09:03:08.250Z,19.40
2018-05-05T09:05:34.110Z,18.80
2018-05-05T09:08:00.011Z,19.00
2018-05-05T09:10:25.909Z,17.80
2018-05-05T09:12:51.810Z,17.40
2018-05-05T09:15:18.476Z,18.00
2018-05-05T09:17:44.371Z,18.00
2018-05-05T09:20:11.004Z,17.50
2018-05-05T09:22:37.686Z,17.30
2018-05-05T09:25:03.618Z,17.30
2018-05-05T09:27:29.503Z,16.20
2018-05-05T09:29:55.421Z,16.80
2018-05-05T09:32:22.177Z,15.70
2018-05-05T09:34:48.090Z,15.70
2018-05-05T09:37:14.000Z,17.10
2018-05-05T09:39:40.632Z,16.30
2018-05-05T09:42:07.275Z,17.00
2018-05-05T09:44:33.909Z,16.90
2018-05-05T09:47:00.541Z,16.80
2018-05-05T09:49:27.191Z,17.70
2018-05-05T09:51:53.092Z,17.70
2018-05-05T09:54:19.032Z,18.00
2018-05-05T09:56:45.673Z,17.10
2018-05-05T09:59:11.565Z,17.10
2018-05-05T10:01:37.485Z,17.10
2018-05-05T10:04:03.414Z,15.80
2018-05-05T10:06:29.312Z,16.00
2018-05-05T10:08:55.301Z,15.80
2018-05-05T10:11:21.322Z,16.20
2018-05-05T10:13:47.245Z,15.50
2018-05-05T10:16:13.341Z,15.80
2018-05-05T10:18:39.993Z,16.90
2018-05-05T10:21:05.877Z,16.90
2018-05-05T10:23:31.797Z,16.90
2018-05-05T10:25:57.765Z,16.60
2018-05-05T10:28:23.657Z,15.70
2018-05-05T10:30:50.317Z,17.10
2018-05-05T10:33:16.249Z,17.00
2018-05-05T10:35:42.153Z,17.10
2018-05-05T10:38:08.116Z,16.40
2018-05-05T10:40:34.035Z,15.50
2018-05-05T10:43:00.067Z,15.20
2018-05-05T10:45:25.962Z,14.60
2018-05-05T10:47:51.890Z,16.10
2018-05-05T10:50:17.798Z,15.50
2018-05-05T10:52:43.723Z,15.70
2018-05-05T10:55:09.592Z,15.10
2018-05-05T10:57:35.486Z,15.40
2018-05-05T11:00:01.431Z,15.60
2018-05-05T11:02:27.312Z,15.40
2018-05-05T11:04:53.209Z,17.00
2018-05-05T11:07:19.130Z,17.60
2018-05-05T11:09:45.056Z,18.10
2018-05-05T11:12:11.747Z,17.30
2018-05-05T11:14:37.612Z,17.30
2018-05-05T11:17:03.539Z,16.60
2018-05-05T11:19:29.563Z,16.20
2018-05-05T11:21:55.476Z,16.60
2018-05-05T11:24:21.457Z,17.00
2018-05-05T11:26:48.125Z,17.90
2018-05-05T11:29:14.788Z,17.70
2018-05-05T11:31:40.715Z,17.70
2018-05-05T11:34:06.609Z,18.00
2018-05-05T11:36:32.549Z,17.50
2018-05-05T11:38:58.440Z,18.70
2018-05-05T11:41:25.104Z,18.40
2018-05-05T11:43:51.047Z,18.40
2018-05-05T11:46:16.966Z,18.40
2018-05-05T11:48:42.863Z,18.00
2018-05-05T11:51:08.789Z,18.10
2018-05-05T11:53:34.706Z,16.90
2018-05-05T11:56:00.676Z,17.20
2018-05-05T11:58:27.244Z,17.30
2018-05-05T12:00:53.898Z,17.90
2018-05-05T12:03:19.801Z,17.90
2018-05-05T12:05:46.462Z,18.20
2018-05-05T12:08:12.618Z,18.20
2018-05-05T12:10:38.640Z,18.40
2018-05-05T12:13:04.519Z,18.50
2018-05-05T12:15:30.411Z,18.70
2018-05-05T12:17:57.061Z,18.80
2018-05-05T12:20:23.808Z,18.70
2018-05-05T12:22:50.442Z,19.00
2018-05-05T12:25:17.116Z,18.40
2018-05-05T12:27:43.104Z,18.80
2018-05-05T12:30:09.045Z,18.30
2018-05-05T12:32:34.941Z,17.80
2018-05-05T12:35:01.611Z,18.10
2018-05-05T12:37:27.501Z,18.10
2018-05-05T12:39:54.125Z,18.50
2018-05-05T12:42:20.790Z,19.40
2018-05-05T12:44:46.714Z,18.90
2018-05-05T12:47:12.631Z,19.00
2018-05-05T12:49:38.669Z,19.50
2018-05-05T12:52:04.568Z,20.90
2018-05-05T12:54:31.350Z,21.00
2018-05-05T12:56:57.259Z,21.00
2018-05-05T12:59:23.167Z,20.40
2018-05-05T13:01:49.109Z,19.90
2018-05-05T13:04:15.002Z,19.30
2018-05-05T13:06:40.914Z,19.80
2018-05-05T13:09:06.804Z,19.70
2018-05-05T13:11:32.783Z,19.70
2018-05-05T13:13:58.631Z,20.40
2018-05-05T13:16:24.534Z,20.10
2018-05-05T13:18:50.431Z,19.80
2018-05-05T13:21:16.332Z,19.70
2018-05-05T13:23:43.027Z,20.40
2018-05-05T13:26:09.045Z,20.50
2018-05-05T13:28:34.952Z,20.70
2018-05-05T13:31:00.876Z,20.40
2018-05-05T13:33:26.805Z,21.00
2018-05-05T13:35:52.695Z,21.90
2018-05-05T13:38:18.574Z,22.70
2018-05-05T13:40:44.492Z,22.40
2018-05-05T13:43:10.382Z,22.70
2018-05-05T13:45:36.352Z,22.70
2018-05-05T13:48:03.006Z,21.20
2018-05-05T13:50:28.904Z,21.20
2018-05-05T13:52:55.544Z,21.20
2018-05-05T13:55:22.224Z,20.00
2018-05-05T13:57:48.193Z,20.00
2018-05-05T14:00:14.081Z,20.60
2018-05-05T14:02:39.999Z,19.40
2018-05-05T14:05:05.904Z,19.90
2018-05-05T14:07:31.788Z,20.00
2018-05-05T14:09:58.475Z,20.40
2018-05-05T14:12:24.369Z,20.40
2018-05-05T14:14:50.274Z,20.60
2018-05-05T14:17:16.923Z,21.70
2018-05-05T14:19:42.800Z,21.60
2018-05-05T14:22:08.721Z,23.00
2018-05-05T14:24:34.619Z,24.30
2018-05-05T14:27:01.691Z,24.00
2018-05-05T14:29:27.728Z,23.80
2018-05-05T14:31:53.625Z,23.80
2018-05-05T14:34:19.527Z,22.50
2018-05-05T14:36:45.434Z,21.70
2018-05-05T14:39:11.329Z,21.30
2018-05-05T14:41:37.964Z,21.40
2018-05-05T14:44:04.602Z,21.40
2018-05-05T14:46:30.493Z,21.40
2018-05-05T14:48:56.418Z,22.00
2018-05-05T14:51:22.311Z,22.70
2018-05-05T14:53:48.213Z,23.10
2018-05-05T14:56:14.151Z,24.20
2018-05-05T14:58:40.058Z,25.50
2018-05-05T15:01:05.953Z,25.30
2018-05-05T15:03:31.842Z,25.80
2018-05-05T15:05:57.743Z,25.50
2018-05-05T15:08:23.640Z,26.10
2018-05-05T15:10:49.550Z,25.60
2018-05-05T15:13:15.449Z,26.10
2018-05-05T15:15:42.082Z,25.10
2018-05-05T15:18:08.723Z,24.40
2018-05-05T15:20:36.224Z,24.30
2018-05-05T15:23:02.142Z,24.30
2018-05-05T15:25:28.018Z,24.10
2018-05-05T15:27:54.666Z,23.70
2018-05-05T15:30:20.562Z,23.70
2018-05-05T15:32:46.431Z,23.90
2018-05-05T15:35:12.396Z,23.20
2018-05-05T15:37:38.296Z,23.70
2018-05-05T15:40:04.260Z,24.10
2018-05-05T15:42:30.909Z,24.60
2018-05-05T15:44:56.965Z,24.50
2018-05-05T15:47:23.052Z,25.20
2018-05-05T15:49:49.814Z,26.30
2018-05-05T15:52:15.835Z,26.30
2018-05-05T15:54:41.750Z,26.30
2018-05-05T15:57:07.761Z,26.10
2018-05-05T15:59:33.601Z,26.40
2018-05-05T16:01:59.488Z,27.30
2018-05-05T16:04:26.172Z,28.50
2018-05-05T16:06:52.086Z,28.50
2018-05-05T16:09:17.995Z,28.50
2018-05-05T16:11:43.898Z,28.50
2018-05-05T16:14:09.804Z,29.30
2018-05-05T16:16:36.449Z,29.80
2018-05-05T16:19:03.248Z,30.00
2018-05-05T16:21:29.168Z,30.00
2018-05-05T16:23:55.090Z,29.90
2018-05-05T16:26:20.985Z,30.70
2018-05-05T16:28:47.123Z,31.00
2018-05-05T16:31:13.132Z,31.00
2018-05-05T16:33:39.032Z,31.10
2018-05-05T16:36:04.976Z,31.50
2018-05-05T16:38:30.945Z,31.80
2018-05-05T16:40:56.847Z,31.80
2018-05-05T16:43:22.766Z,32.10
2018-05-05T16:45:48.775Z,32.20
2018-05-05T16:50:47.508Z,32.50
2018-05-05T16:53:13.452Z,32.70
2018-05-05T16:55:40.634Z,32.90
2018-05-05T16:58:06.853Z,32.90
2018-05-05T17:00:33.214Z,33.10
2018-05-05T17:03:00.445Z,33.50
2018-05-05T17:05:27.352Z,33.40
2018-05-05T17:07:54.032Z,33.90
2018-05-05T17:10:19.967Z,33.90
2018-05-05T17:12:45.916Z,34.10
2018-05-05T17:15:11.831Z,34.40
2018-05-05T17:17:37.725Z,34.90
2018-05-05T17:20:03.681Z,35.30
2018-05-05T17:22:29.590Z,35.50
2018-05-05T17:24:55.500Z,35.70
2018-05-05T17:27:21.414Z,35.80
2018-05-05T17:29:47.388Z,36.00
2018-05-05T17:32:14.074Z,36.40
2018-05-05T17:34:40.047Z,36.40
2018-05-05T17:37:06.706Z,36.60
2018-05-05T17:39:32.650Z,36.50
2018-05-05T17:41:58.588Z,36.70
2018-05-05T17:44:24.500Z,36.90
2018-05-05T17:46:50.425Z,37.10
2018-05-05T17:49:16.392Z,37.30
2018-05-05T17:51:43.033Z,37.80
2018-05-05T17:54:08.960Z,37.90
2018-05-05T17:56:34.881Z,38.10
2018-05-05T17:59:00.813Z,38.30
2018-05-05T18:01:26.725Z,38.30
2018-05-05T18:03:52.615Z,38.50
2018-05-05T18:06:18.558Z,38.70
2018-05-05T18:08:45.208Z,39.00
2018-05-05T18:11:11.140Z,39.00
2018-05-05T18:13:37.535Z,39.20
2018-05-05T18:16:04.177Z,39.50
2018-05-05T18:18:30.804Z,39.80
2018-05-05T18:20:57.464Z,40.40
2018-05-05T18:23:24.150Z,41.40
2018-05-05T18:25:50.067Z,40.50
2018-05-05T18:28:15.985Z,40.80
2018-05-05T18:30:41.887Z,41.10
2018-05-05T18:33:07.785Z,41.40
2018-05-05T18:35:34.465Z,42.20
2018-05-05T18:38:00.371Z,42.20
2018-05-05T18:40:26.278Z,42.40
2018-05-05T18:42:52.199Z,42.80
2018-05-05T18:45:18.133Z,43.30
2018-05-05T18:47:44.047Z,43.50
2018-05-05T18:50:09.999Z,44.00
2018-05-05T18:52:35.896Z,44.20
2018-05-05T18:55:02.089Z,44.50
2018-05-05T18:57:28.756Z,45.90
2018-05-05T18:59:54.648Z,45.00
2018-05-05T19:02:21.727Z,45.90
2018-05-05T19:04:48.473Z,45.90
2018-05-05T19:07:15.537Z,46.10
2018-05-05T19:09:41.473Z,46.10
2018-05-05T19:12:07.365Z,46.60
2018-05-05T19:14:33.309Z,47.00
2018-05-05T19:16:59.220Z,49.00
2018-05-05T19:19:25.129Z,49.40
2018-05-05T19:21:51.015Z,49.80
2018-05-05T19:24:17.656Z,51.30
2018-05-05T19:26:43.577Z,51.40
2018-05-05T19:29:09.472Z,51.80
2018-05-05T19:31:35.373Z,52.10
2018-05-05T19:34:01.304Z,53.50
2018-05-05T19:36:27.332Z,53.00
2018-05-05T19:38:53.338Z,53.60
2018-05-05T19:41:19.144Z,54.00
2018-05-05T19:43:45.053Z,54.10
2018-05-05T19:46:10.934Z,54.50
2018-05-05T19:48:37.547Z,55.30
2018-05-05T19:51:03.682Z,55.40
2018-05-05T19:53:30.315Z,55.60
2018-05-05T19:55:56.222Z,55.70
2018-05-05T19:58:22.120Z,56.10
2018-05-05T20:00:48.002Z,56.90
2018-05-05T20:03:13.949Z,56.90
2018-05-05T20:05:39.862Z,56.80
2018-05-05T20:08:05.774Z,57.50
2018-05-05T20:10:31.669Z,57.90
2018-05-05T20:12:58.296Z,58.20
2018-05-05T20:15:24.220Z,58.20
2018-05-05T20:17:50.661Z,58.30
2018-05-05T20:20:17.304Z,58.60
2018-05-05T20:22:43.946Z,58.70
2018-05-05T20:25:10.587Z,58.60
2018-05-05T20:27:37.237Z,58.70
2018-05-05T20:30:03.143Z,58.60
2018-05-05T20:32:30.230Z,59.10
2018-05-05T20:34:56.332Z,59.00
2018-05-05T20:37:23.457Z,59.30
2018-05-05T20:39:49.409Z,59.00
2018-05-05T20:42:15.847Z,59.50
2018-05-05T20:44:41.810Z,59.60
2018-05-05T20:47:07.726Z,59.70
2018-05-05T20:49:33.634Z,60.40
2018-05-05T20:51:59.602Z,60.70
2018-05-05T20:54:26.247Z,60.30
2018-05-05T20:56:52.155Z,60.30
2018-05-05T20:59:18.831Z,60.70
2018-05-05T21:01:44.700Z,60.70
2018-05-05T21:04:10.598Z,60.90
2018-05-05T21:06:36.493Z,61.00
2018-05-05T21:09:02.402Z,61.60
2018-05-05T21:11:28.304Z,61.80
2018-05-05T21:13:54.216Z,62.20
2018-05-05T21:16:20.885Z,62.90
2018-05-05T21:18:46.776Z,62.90
2018-05-05T21:21:13.429Z,63.10
2018-05-05T21:23:39.317Z,63.10
2018-05-05T21:26:05.211Z,63.70
2018-05-05T21:28:31.135Z,64.00
2018-05-05T21:30:57.030Z,63.80
2018-05-05T21:33:22.953Z,63.70
2018-05-05T21:35:48.837Z,63.70
2018-05-05T21:38:14.744Z,63.70
2018-05-05T21:40:41.437Z,64.90
2018-05-05T21:43:07.338Z,64.50
2018-05-05T21:45:33.250Z,64.40
2018-05-05T21:47:59.138Z,64.60
2018-05-05T21:50:25.083Z,64.40
2018-05-05T21:52:51.752Z,64.90
2018-05-05T21:55:17.654Z,64.90
2018-05-05T21:57:43.567Z,65.20
2018-05-05T22:00:09.483Z,65.40
2018-05-05T22:02:36.108Z,65.50
2018-05-05T22:05:03.559Z,66.30
2018-05-05T22:07:29.451Z,65.50
2018-05-05T22:09:55.357Z,65.40
2018-05-05T22:12:21.277Z,65.40
2018-05-05T22:14:47.214Z,65.60
2018-05-05T22:17:13.143Z,65.10
2018-05-05T22:19:39.069Z,65.00
2018-05-05T22:22:04.970Z,65.90
2018-05-05T22:24:31.063Z,65.90
2018-05-05T22:26:56.983Z,66.50
2018-05-05T22:29:23.045Z,67.10
2018-05-05T22:31:48.965Z,67.30
2018-05-05T22:34:14.880Z,66.70
2018-05-05T22:36:41.015Z,68.00
2018-05-05T22:39:06.909Z,67.90
2018-05-05T22:41:32.824Z,68.40
2018-05-05T22:43:58.814Z,68.30
2018-05-05T22:46:25.468Z,68.70
2018-05-05T22:48:51.369Z,68.70
2018-05-05T22:51:18.016Z,68.50
2018-05-05T22:53:44.696Z,69.20
2018-05-05T22:56:10.627Z,68.30
2018-05-05T22:58:36.562Z,68.40
2018-05-05T23:01:02.444Z,68.80
2018-05-05T23:03:28.407Z,68.80
2018-05-05T23:05:54.341Z,68.50
2018-05-05T23:08:20.269Z,68.20
2018-05-05T23:10:46.911Z,68.50
2018-05-05T23:13:13.859Z,68.00
2018-05-05T23:15:40.497Z,67.60
2018-05-05T23:18:07.220Z,68.70
2018-05-05T23:20:33.132Z,68.70
2018-05-05T23:22:59.105Z,69.00
2018-05-05T23:25:25.005Z,69.00
2018-05-05T23:27:50.930Z,70.70
2018-05-05T23:30:17.567Z,70.30
2018-05-05T23:32:44.230Z,70.10
2018-05-05T23:35:10.157Z,70.10
2018-05-05T23:37:36.051Z,71.40
2018-05-05T23:40:02.706Z,69.80
2018-05-05T23:42:28.706Z,70.60
2018-05-05T23:44:55.340Z,71.80
2018-05-05T23:47:21.988Z,71.20
2018-05-05T23:49:47.880Z,71.00
2018-05-05T23:52:13.779Z,71.60
2018-05-05T23:54:39.698Z,72.50
2018-05-05T23:57:05.626Z,71.90
2018-05-05T23:59:31.530Z,71.40
